Time;durP1;ratioP1;P1;durP2;ratioP2;P2;SDS_P1;SDS_P2;PMS_P1;PMS_P2;Temp;Humidity;BMP_temperature;BMP_pressure;BME280_temperature;BME280_humidity;BME280_pressure;Samples;Min_cycle;Max_cycle;Signal;HPM_P1;HPM_P2
2022/03/01 00:00:29;;;;;;;19.10;7.68;;;2.00;99.90;;;;;;5007115;28;20085;-73
2022/03/01 00:02:59;;;;;;;28.20;9.25;;;2.00;99.90;;;;;;5024780;28;20034;-73
2022/03/01 00:05:25;;;;;;;26.25;9.15;;;2.00;99.90;;;;;;5018219;28;20061;-73
2022/03/01 00:07:51;;;;;;;25.92;8.13;;;2.00;99.90;;;;;;5020796;28;20053;-73
2022/03/01 00:10:17;;;;;;;25.92;8.13;;;2.00;99.90;;;;;;5024203;28;20030;-73
2022/03/01 00:12:42;;;;;;;24.10;7.72;;;2.00;99.90;;;;;;5006241;28;20037;-73
2022/03/01 00:15:08;;;;;;;27.85;8.70;;;2.00;99.90;;;;;;5024487;28;20105;-72
2022/03/01 00:17:34;;;;;;;18.13;7.60;;;2.00;99.90;;;;;;5024109;28;20084;-73
2022/03/01 00:19:59;;;;;;;27.98;9.60;;;2.00;99.90;;;;;;5006708;28;20057;-73
2022/03/01 00:22:25;;;;;;;27.40;9.50;;;1.90;99.90;;;;;;5024568;28;20022;-73
2022/03/01 00:24:51;;;;;;;23.48;8.18;;;1.90;99.90;;;;;;5006616;28;20026;-74
2022/03/01 00:27:16;;;;;;;21.83;7.72;;;1.90;99.90;;;;;;5007854;28;20065;-74
2022/03/01 00:29:42;;;;;;;27.23;8.00;;;1.90;99.90;;;;;;5027939;28;20033;-73
2022/03/01 00:32:08;;;;;;;22.92;8.18;;;1.90;99.90;;;;;;5027607;28;20037;-74
2022/03/01 00:34:33;;;;;;;30.50;10.30;;;1.90;99.90;;;;;;5008980;28;20095;-72
2022/03/01 00:36:59;;;;;;;25.40;7.75;;;1.90;99.90;;;;;;5009501;28;20121;-74
2022/03/01 00:39:25;;;;;;;21.75;8.10;;;1.90;99.90;;;;;;5009777;28;20030;-73
2022/03/01 00:41:50;;;;;;;21.67;9.52;;;1.80;99.90;;;;;;5027978;28;20029;-73
2022/03/01 00:44:16;;;;;;;26.77;8.02;;;1.80;99.90;;;;;;5027763;28;20030;-74
2022/03/01 00:46:42;;;;;;;25.55;8.93;;;1.80;99.90;;;;;;5027344;28;20033;-74
2022/03/01 00:49:07;;;;;;;27.60;8.48;;;1.80;99.90;;;;;;5009863;28;20084;-73
2022/03/01 00:51:33;;;;;;;25.95;8.82;;;1.80;99.90;;;;;;5027446;28;20053;-73
2022/03/01 00:53:59;;;;;;;23.52;8.82;;;1.80;99.90;;;;;;5009750;28;20022;-73
2022/03/01 00:56:25;;;;;;;31.73;8.55;;;1.80;99.90;;;;;;5027778;28;20026;-72
2022/03/01 00:58:52;;;;;;;22.98;8.05;;;1.70;99.90;;;;;;5027356;28;20064;-74
2022/03/01 01:01:18;;;;;;;21.33;8.80;;;1.70;99.90;;;;;;5027092;28;20018;-74
2022/03/01 01:03:43;;;;;;;26.83;8.15;;;1.70;99.90;;;;;;5027559;28;20081;-74
2022/03/01 01:06:09;;;;;;;19.08;6.90;;;1.70;99.90;;;;;;5026819;28;20062;-75
2022/03/01 01:08:35;;;;;;;24.00;6.95;;;1.70;99.90;;;;;;5026909;28;20026;-76
2022/03/01 01:11:00;;;;;;;26.95;8.20;;;1.60;99.90;;;;;;5009712;28;20030;-75
2022/03/01 01:13:28;;;;;;;32.15;7.95;;;1.60;99.90;;;;;;5009652;28;20053;-75
2022/03/01 01:15:55;;;;;;;30.15;8.55;;;1.50;99.90;;;;;;5026935;28;20068;-75
2022/03/01 01:18:20;;;;;;;24.13;9.07;;;1.50;99.90;;;;;;5027384;28;20049;-74
2022/03/01 01:20:46;;;;;;;24.83;8.13;;;1.50;99.90;;;;;;5009437;28;20026;-74
2022/03/01 01:23:11;;;;;;;21.45;7.50;;;1.60;99.90;;;;;;5026592;28;20038;-74
2022/03/01 01:25:37;;;;;;;29.52;8.18;;;1.50;99.90;;;;;;5027114;28;20029;-74
2022/03/01 01:28:03;;;;;;;30.08;8.57;;;1.40;99.90;;;;;;5026920;28;20022;-74
2022/03/01 01:30:33;;;;;;;23.75;7.32;;;1.40;99.90;;;;;;5009034;28;20474;-75
2022/03/01 01:32:59;;;;;;;21.52;7.53;;;1.40;99.90;;;;;;5009484;28;20030;-74
2022/03/01 01:35:27;;;;;;;27.80;8.25;;;1.30;99.90;;;;;;5009302;28;20117;-72
2022/03/01 01:37:55;;;;;;;21.15;7.85;;;1.30;99.90;;;;;;5026245;28;20038;-73
2022/03/01 01:40:24;;;;;;;19.27;7.13;;;1.30;99.90;;;;;;5026824;28;20026;-73
2022/03/01 01:42:51;;;;;;;19.38;6.55;;;1.30;99.90;;;;;;5009126;28;20030;-73
2022/03/01 01:45:17;;;;;;;32.70;9.80;;;1.30;99.90;;;;;;5008758;28;20063;-74
2022/03/01 01:47:43;;;;;;;27.80;8.18;;;1.20;99.90;;;;;;5026742;28;20030;-73
2022/03/01 01:50:09;;;;;;;22.45;6.40;;;1.20;99.90;;;;;;5026235;28;20397;-73
2022/03/01 01:52:36;;;;;;;26.70;7.65;;;1.20;99.90;;;;;;5026295;28;20461;-73
2022/03/01 01:55:02;;;;;;;18.05;6.38;;;1.10;99.90;;;;;;5026498;28;20044;-73
2022/03/01 01:57:28;;;;;;;16.40;6.32;;;1.10;99.90;;;;;;5026013;28;20042;-74
2022/03/01 01:59:56;;;;;;;28.65;8.30;;;1.10;99.90;;;;;;5026573;28;20078;-73
2022/03/01 02:02:23;;;;;;;18.52;7.78;;;1.10;99.90;;;;;;5008855;28;20041;-74
2022/03/01 02:04:49;;;;;;;22.85;7.55;;;1.10;99.90;;;;;;5025547;28;20029;-73
2022/03/01 02:07:15;;;;;;;28.20;8.55;;;1.10;99.90;;;;;;5008355;28;20046;-74
2022/03/01 02:09:42;;;;;;;28.05;8.68;;;1.10;99.90;;;;;;5026269;28;20033;-73
2022/03/01 02:12:08;;;;;;;24.08;7.63;;;1.00;99.90;;;;;;5025712;28;20034;-74
2022/03/01 02:14:36;;;;;;;23.88;7.85;;;1.00;99.90;;;;;;5008180;28;20022;-73
2022/03/01 02:17:05;;;;;;;24.98;7.95;;;1.10;99.90;;;;;;5025438;28;20022;-74
2022/03/01 02:19:32;;;;;;;32.45;8.63;;;1.00;99.90;;;;;;5025726;28;20504;-74
2022/03/01 02:21:59;;;;;;;20.75;7.70;;;1.10;99.90;;;;;;5025870;28;20041;-74
2022/03/01 02:24:27;;;;;;;21.60;8.00;;;1.00;99.90;;;;;;5025599;28;20022;-75
2022/03/01 02:26:59;;;;;;;23.92;7.85;;;1.00;99.90;;;;;;5008426;28;20034;-74
2022/03/01 02:29:26;;;;;;;27.45;8.52;;;1.00;99.90;;;;;;5006500;28;20077;-75
2022/03/01 02:31:55;;;;;;;34.58;8.65;;;1.00;99.90;;;;;;4990175;28;20034;-73
2022/03/01 02:34:23;;;;;;;21.83;8.25;;;0.90;99.90;;;;;;5006583;28;20022;-74
2022/03/01 02:36:49;;;;;;;27.20;8.77;;;0.90;99.90;;;;;;5019040;28;20022;-74
2022/03/01 02:39:16;;;;;;;28.13;8.50;;;1.00;99.90;;;;;;5025466;28;20034;-74
2022/03/01 02:41:44;;;;;;;31.30;9.10;;;0.90;99.90;;;;;;5025508;28;20026;-74
2022/03/01 02:44:13;;;;;;;24.75;8.48;;;0.90;99.90;;;;;;5007506;28;20030;-75
2022/03/01 02:46:39;;;;;;;21.92;7.43;;;0.90;99.90;;;;;;5007824;28;20492;-74
2022/03/01 02:49:07;;;;;;;23.63;7.97;;;0.90;99.90;;;;;;5007378;28;20033;-74
2022/03/01 02:51:33;;;;;;;22.88;8.52;;;0.90;99.90;;;;;;5024655;28;20029;-74
2022/03/01 02:54:00;;;;;;;21.15;8.50;;;0.90;99.90;;;;;;5025516;28;20458;-74
2022/03/01 02:56:27;;;;;;;24.17;8.07;;;0.90;99.90;;;;;;5025433;28;20032;-75
2022/03/01 02:58:55;;;;;;;29.05;8.77;;;0.90;99.90;;;;;;5025370;28;20042;-75
2022/03/01 03:01:25;;;;;;;34.53;8.32;;;0.90;99.90;;;;;;5024905;28;20430;-74
2022/03/01 03:03:51;;;;;;;19.63;8.38;;;0.90;99.90;;;;;;5025602;28;20026;-74
2022/03/01 03:06:17;;;;;;;28.48;7.72;;;0.90;99.90;;;;;;5024320;28;20096;-73
2022/03/01 03:08:43;;;;;;;33.90;9.00;;;0.90;99.90;;;;;;5025228;28;20034;-75
2022/03/01 03:11:09;;;;;;;21.00;6.95;;;1.00;99.90;;;;;;5024970;28;20087;-74
2022/03/01 03:13:36;;;;;;;24.38;9.18;;;0.90;99.90;;;;;;5025133;28;20036;-73
2022/03/01 03:16:02;;;;;;;21.42;7.07;;;0.90;99.90;;;;;;5025094;28;20030;-73
2022/03/01 03:18:28;;;;;;;35.75;8.35;;;0.90;99.90;;;;;;5024724;28;20077;-75
2022/03/01 03:20:53;;;;;;;21.48;7.50;;;0.90;99.90;;;;;;5025170;28;20048;-75
2022/03/01 03:23:19;;;;;;;16.52;6.97;;;0.90;99.90;;;;;;5025053;28;20036;-73
2022/03/01 03:25:45;;;;;;;21.17;6.93;;;0.90;99.90;;;;;;5006832;28;20038;-73
2022/03/01 03:28:11;;;;;;;26.02;7.75;;;0.90;99.90;;;;;;5024660;28;20034;-74
2022/03/01 03:30:36;;;;;;;18.80;6.85;;;0.80;99.90;;;;;;5024901;28;20034;-73
2022/03/01 03:33:02;;;;;;;23.58;7.68;;;0.90;99.90;;;;;;5024436;28;20029;-74
2022/03/01 03:35:27;;;;;;;20.45;7.32;;;0.80;99.90;;;;;;5024845;28;20026;-73
2022/03/01 03:37:54;;;;;;;24.23;7.18;;;0.80;99.90;;;;;;5024806;28;20037;-73
2022/03/01 03:40:19;;;;;;;19.25;6.70;;;0.80;99.90;;;;;;5024446;28;20037;-73
2022/03/01 03:42:45;;;;;;;19.38;6.65;;;0.70;99.90;;;;;;5024699;28;20078;-74
2022/03/01 03:45:12;;;;;;;20.83;6.90;;;0.70;99.90;;;;;;5024700;28;20056;-74
2022/03/01 03:47:38;;;;;;;21.58;6.93;;;0.70;99.90;;;;;;5024550;28;20022;-72
2022/03/01 03:50:04;;;;;;;21.52;6.60;;;0.60;99.90;;;;;;5024819;28;20049;-73
2022/03/01 03:52:31;;;;;;;25.02;7.32;;;0.60;99.90;;;;;;5006367;28;20029;-75
2022/03/01 03:54:58;;;;;;;22.27;7.00;;;0.60;99.90;;;;;;5024586;28;20026;-72
2022/03/01 03:57:24;;;;;;;22.80;7.57;;;0.60;99.90;;;;;;5024521;28;20042;-72
2022/03/01 03:59:50;;;;;;;26.27;6.15;;;0.60;99.90;;;;;;5024442;28;20022;-73
2022/03/01 04:02:16;;;;;;;21.83;7.00;;;0.60;99.90;;;;;;5027575;28;20088;-72
2022/03/01 04:04:42;;;;;;;19.13;6.78;;;0.50;99.90;;;;;;5028296;28;20088;-73
2022/03/01 04:07:09;;;;;;;20.02;6.93;;;0.50;99.90;;;;;;5027836;28;20042;-72
2022/03/01 04:09:35;;;;;;;21.67;5.80;;;0.50;99.90;;;;;;5010883;28;20509;-74
2022/03/01 04:12:01;;;;;;;22.83;8.27;;;0.50;99.90;;;;;;5028345;28;20053;-73
2022/03/01 04:14:28;;;;;;;16.10;6.28;;;0.50;99.90;;;;;;5028157;28;20030;-73
2022/03/01 04:16:54;;;;;;;20.08;6.18;;;0.50;99.90;;;;;;5028515;28;20047;-74
2022/03/01 04:19:19;;;;;;;18.73;5.93;;;0.40;99.90;;;;;;5010568;28;20169;-73
2022/03/01 04:21:45;;;;;;;23.45;8.23;;;0.40;99.90;;;;;;5027504;28;20014;-73
2022/03/01 04:24:10;;;;;;;19.83;6.38;;;0.40;99.90;;;;;;5028325;28;20033;-72
2022/03/01 04:26:36;;;;;;;20.13;6.68;;;0.40;99.90;;;;;;5027978;28;20156;-72
2022/03/01 04:29:03;;;;;;;17.52;6.10;;;0.40;99.90;;;;;;5027884;28;20084;-73
2022/03/01 04:31:29;;;;;;;20.58;6.88;;;0.40;99.90;;;;;;5028119;28;20022;-73
2022/03/01 04:33:59;;;;;;;25.08;7.63;;;0.40;99.90;;;;;;5027709;28;20060;-73
2022/03/01 04:36:26;;;;;;;15.88;5.95;;;0.40;99.90;;;;;;5028041;28;20035;-72
2022/03/01 04:38:51;;;;;;;17.40;6.20;;;0.40;99.90;;;;;;5028085;28;20077;-73
2022/03/01 04:41:17;;;;;;;14.00;5.97;;;0.40;99.90;;;;;;5009771;28;20501;-73
2022/03/01 04:43:42;;;;;;;18.33;6.05;;;0.40;99.90;;;;;;5010301;28;20097;-72
2022/03/01 04:46:08;;;;;;;22.02;6.90;;;0.40;99.90;;;;;;5027811;28;20080;-72
2022/03/01 04:48:34;;;;;;;21.45;7.22;;;0.40;99.90;;;;;;5027192;28;20022;-73
2022/03/01 04:51:00;;;;;;;26.85;6.22;;;0.40;99.90;;;;;;5027822;28;20413;-73
2022/03/01 04:53:25;;;;;;;16.92;6.22;;;0.40;99.90;;;;;;5027550;28;20034;-74
2022/03/01 04:55:51;;;;;;;21.90;6.45;;;0.40;99.90;;;;;;5027632;28;20029;-72
2022/03/01 04:58:17;;;;;;;18.58;5.82;;;0.40;99.90;;;;;;5027473;28;20029;-72
2022/03/01 05:00:43;;;;;;;25.85;7.93;;;0.40;99.90;;;;;;5027096;28;20068;-71
2022/03/01 05:03:08;;;;;;;15.82;5.18;;;0.40;99.90;;;;;;5027451;28;20038;-72
2022/03/01 05:05:34;;;;;;;21.00;6.68;;;0.40;99.90;;;;;;5027137;28;20037;-72
2022/03/01 05:08:00;;;;;;;18.48;5.90;;;0.40;99.90;;;;;;5008788;28;20046;-72
2022/03/01 05:10:26;;;;;;;12.25;4.88;;;0.40;99.90;;;;;;5027543;28;20484;-71
2022/03/01 05:12:56;;;;;;;16.33;5.38;;;0.40;99.90;;;;;;5026833;28;20045;-72
2022/03/01 05:15:26;;;;;;;14.70;5.65;;;0.40;99.90;;;;;;5009254;28;20060;-73
2022/03/01 05:17:53;;;;;;;13.35;5.07;;;0.40;99.90;;;;;;5027425;28;20107;-74
2022/03/01 05:20:20;;;;;;;17.45;5.97;;;0.40;99.90;;;;;;5027341;28;20433;-73
2022/03/01 05:22:46;;;;;;;18.98;6.22;;;0.40;99.90;;;;;;5025947;28;20044;-72
2022/03/01 05:25:17;;;;;;;14.07;4.70;;;0.40;99.90;;;;;;5009083;28;20090;-72
2022/03/01 05:27:45;;;;;;;20.17;6.90;;;0.30;99.90;;;;;;5026756;28;20045;-72
2022/03/01 05:30:13;;;;;;;20.92;7.70;;;0.30;99.90;;;;;;5026705;28;20057;-72
2022/03/01 05:32:42;;;;;;;13.65;5.47;;;0.30;99.90;;;;;;5027026;28;20025;-72
2022/03/01 05:35:09;;;;;;;15.32;4.75;;;0.30;99.90;;;;;;5026651;28;20029;-72
2022/03/01 05:37:36;;;;;;;13.55;5.68;;;0.30;99.90;;;;;;5026432;28;20133;-72
2022/03/01 05:40:03;;;;;;;17.58;6.15;;;0.30;99.90;;;;;;5026949;28;20029;-72
2022/03/01 05:42:29;;;;;;;18.77;5.35;;;0.30;99.90;;;;;;5026166;28;20046;-73
2022/03/01 05:44:55;;;;;;;23.23;6.05;;;0.30;99.90;;;;;;5027039;28;20041;-74
2022/03/01 05:47:21;;;;;;;29.02;6.43;;;0.30;99.90;;;;;;5026882;28;20045;-72
2022/03/01 05:49:47;;;;;;;15.70;6.03;;;0.30;99.90;;;;;;5025970;28;20029;-74
2022/03/01 05:52:12;;;;;;;15.18;4.60;;;0.30;99.90;;;;;;5008664;28;20116;-73
2022/03/01 05:54:38;;;;;;;14.10;6.18;;;0.30;99.90;;;;;;5026300;28;20022;-73
2022/03/01 05:57:03;;;;;;;15.55;4.80;;;0.30;99.90;;;;;;5026087;28;20049;-73
2022/03/01 05:59:32;;;;;;;15.60;5.45;;;0.20;99.90;;;;;;5026530;28;20029;-74
2022/03/01 06:01:58;;;;;;;17.50;5.82;;;0.20;99.90;;;;;;5026480;28;20041;-73
2022/03/01 06:04:28;;;;;;;20.33;5.65;;;0.20;99.90;;;;;;5026038;28;20028;-74
2022/03/01 06:06:54;;;;;;;16.77;5.38;;;0.20;99.90;;;;;;5024173;28;20144;-73
2022/03/01 06:09:19;;;;;;;18.38;6.28;;;0.20;99.90;;;;;;5025374;28;20038;-73
2022/03/01 06:11:45;;;;;;;17.80;5.63;;;0.20;99.90;;;;;;5025526;28;20033;-73
2022/03/01 06:14:11;;;;;;;16.67;6.18;;;0.20;99.90;;;;;;5025779;28;20088;-73
2022/03/01 06:16:36;;;;;;;19.70;5.78;;;0.20;99.90;;;;;;5022833;28;20024;-73
2022/03/01 06:19:03;;;;;;;20.08;5.82;;;0.20;99.90;;;;;;5025387;28;20042;-73
2022/03/01 06:21:30;;;;;;;21.73;6.00;;;0.20;99.90;;;;;;5024736;28;20061;-72
2022/03/01 06:23:56;;;;;;;13.30;4.88;;;0.20;99.90;;;;;;5024807;28;20022;-72
2022/03/01 06:26:22;;;;;;;13.85;5.07;;;0.20;99.90;;;;;;5021638;28;20102;-73
2022/03/01 06:28:49;;;;;;;17.30;4.82;;;0.20;99.90;;;;;;5025326;28;20061;-72
2022/03/01 06:31:15;;;;;;;22.85;6.28;;;0.30;99.90;;;;;;5022709;28;20041;-72
2022/03/01 06:33:41;;;;;;;14.48;5.57;;;0.30;99.90;;;;;;5025431;28;20026;-73
2022/03/01 06:36:08;;;;;;;16.85;5.35;;;0.30;99.90;;;;;;5008068;28;20042;-73
2022/03/01 06:38:33;;;;;;;14.02;5.53;;;0.40;99.90;;;;;;5024171;28;20048;-71
2022/03/01 06:40:59;;;;;;;18.40;5.97;;;0.40;99.90;;;;;;5024076;28;20053;-72
2022/03/01 06:43:25;;;;;;;13.75;4.53;;;0.40;99.90;;;;;;5023534;28;20140;-71
2022/03/01 06:45:51;;;;;;;11.15;4.38;;;0.50;99.90;;;;;;5014140;28;20506;-71
2022/03/01 06:48:17;;;;;;;12.00;4.30;;;0.50;99.90;;;;;;5020832;28;20082;-73
2022/03/01 06:50:43;;;;;;;16.70;5.75;;;0.50;99.90;;;;;;5023658;28;20058;-72
2022/03/01 06:53:09;;;;;;;15.07;5.07;;;0.60;99.90;;;;;;5024695;28;20552;-71
2022/03/01 06:55:34;;;;;;;14.60;4.80;;;0.70;99.90;;;;;;5025140;28;20026;-71
2022/03/01 06:58:01;;;;;;;19.52;5.93;;;0.70;99.90;;;;;;5024705;28;20096;-71
2022/03/01 07:00:28;;;;;;;18.52;5.63;;;0.80;99.90;;;;;;5022138;28;20053;-71
2022/03/01 07:02:54;;;;;;;27.02;6.13;;;0.80;99.90;;;;;;5016375;28;20034;-72
2022/03/01 07:05:19;;;;;;;16.67;6.50;;;0.90;99.90;;;;;;5006804;28;20060;-71
2022/03/01 07:07:46;;;;;;;21.85;5.97;;;1.00;99.90;;;;;;5022659;28;20050;-71
2022/03/01 07:10:13;;;;;;;18.42;5.10;;;1.00;99.90;;;;;;5017795;28;20079;-71
2022/03/01 07:12:41;;;;;;;19.42;6.10;;;1.10;99.90;;;;;;5020582;28;20470;-71
2022/03/01 07:15:08;;;;;;;11.57;4.88;;;1.20;99.90;;;;;;5021343;28;20025;-71
2022/03/01 07:17:34;;;;;;;16.02;5.43;;;1.30;99.90;;;;;;5024253;28;20052;-72
2022/03/01 07:19:59;;;;;;;13.10;4.63;;;1.40;99.90;;;;;;5023913;28;20038;-72
2022/03/01 07:22:28;;;;;;;21.02;6.80;;;1.40;99.90;;;;;;5024783;28;20049;-70
2022/03/01 07:24:54;;;;;;;16.30;6.40;;;1.50;99.90;;;;;;5024041;28;20033;-74
2022/03/01 07:27:20;;;;;;;21.05;5.63;;;1.60;99.90;;;;;;5024180;28;20038;-72
2022/03/01 07:29:45;;;;;;;17.17;6.15;;;1.60;99.90;;;;;;5024016;28;20034;-69
2022/03/01 07:32:11;;;;;;;22.27;6.03;;;1.60;99.90;;;;;;5022905;28;20113;-72
2022/03/01 07:34:37;;;;;;;21.58;6.47;;;1.60;99.90;;;;;;5006008;28;20026;-72
2022/03/01 07:37:04;;;;;;;10.63;4.68;;;1.70;99.90;;;;;;5022204;28;20094;-73
2022/03/01 07:39:30;;;;;;;18.25;6.05;;;1.70;99.90;;;;;;5023935;28;20034;-71
2022/03/01 07:41:57;;;;;;;13.25;6.22;;;1.80;99.90;;;;;;5023883;28;20034;-73
2022/03/01 07:44:23;;;;;;;17.75;6.25;;;1.90;99.90;;;;;;5006579;28;20026;-70
2022/03/01 07:46:49;;;;;;;13.55;5.28;;;2.00;99.90;;;;;;5023932;28;20072;-71
2022/03/01 07:49:15;;;;;;;10.90;4.72;;;2.00;99.90;;;;;;5021680;28;20054;-72
2022/03/01 07:51:40;;;;;;;17.15;5.43;;;2.00;99.90;;;;;;5023371;28;20037;-70
2022/03/01 07:54:06;;;;;;;16.67;4.90;;;2.10;99.90;;;;;;5023123;28;20112;-71
2022/03/01 07:56:31;;;;;;;13.73;5.55;;;2.10;99.90;;;;;;5023020;28;20034;-73
2022/03/01 07:58:57;;;;;;;13.73;4.93;;;2.20;99.90;;;;;;5018804;28;20054;-71
2022/03/01 08:01:23;;;;;;;15.95;5.85;;;2.30;99.90;;;;;;5022437;28;20037;-72
2022/03/01 08:03:49;;;;;;;9.65;3.80;;;2.30;99.90;;;;;;5024553;28;20048;-73
2022/03/01 08:06:15;;;;;;;16.15;5.20;;;2.40;99.90;;;;;;5022639;28;20737;-71
2022/03/01 08:08:40;;;;;;;12.60;5.93;;;2.70;99.90;;;;;;5023460;28;20037;-72
2022/03/01 08:11:06;;;;;;;31.10;5.95;;;2.90;99.90;;;;;;5006163;28;20049;-70
2022/03/01 08:13:33;;;;;;;15.23;5.10;;;3.00;99.90;;;;;;5005986;28;20030;-70
2022/03/01 08:16:00;;;;;;;16.52;6.55;;;3.10;99.90;;;;;;5023596;28;20045;-71
2022/03/01 08:18:25;;;;;;;19.02;6.30;;;3.20;99.90;;;;;;5023180;28;20069;-72
2022/03/01 08:20:51;;;;;;;20.10;6.18;;;3.50;99.90;;;;;;5006098;28;20026;-72
2022/03/01 08:23:17;;;;;;;14.38;5.40;;;3.60;99.90;;;;;;5022083;28;20040;-72
2022/03/01 08:25:43;;;;;;;16.48;5.90;;;3.80;99.90;;;;;;5023313;28;20092;-71
2022/03/01 08:28:09;;;;;;;14.20;5.15;;;4.00;99.90;;;;;;5023683;28;20022;-69
2022/03/01 08:30:35;;;;;;;16.48;5.40;;;4.40;99.90;;;;;;5006134;28;20488;-72
2022/03/01 08:33:02;;;;;;;14.45;5.45;;;4.70;99.90;;;;;;5020660;28;20030;-71
2022/03/01 08:35:29;;;;;;;12.73;5.15;;;5.10;99.90;;;;;;5023378;28;20026;-71
2022/03/01 08:37:54;;;;;;;15.43;5.70;;;5.30;99.90;;;;;;5022865;28;20117;-71
2022/03/01 08:40:26;;;;;;;15.48;6.88;;;5.40;99.90;;;;;;4990846;28;20030;-70
2022/03/01 08:42:57;;;;;;;22.13;6.53;;;5.50;99.90;;;;;;5014600;28;20045;-73
2022/03/01 08:45:23;;;;;;;12.85;6.15;;;5.60;99.90;;;;;;5023589;28;20026;-71
2022/03/01 08:47:50;;;;;;;18.67;6.75;;;5.70;99.90;;;;;;5005863;28;20052;-70
2022/03/01 08:50:16;;;;;;;28.98;7.22;;;5.70;99.90;;;;;;5008724;28;20041;-71
2022/03/01 08:52:42;;;;;;;17.20;5.88;;;5.70;99.90;;;;;;5027070;28;20030;-70
2022/03/01 08:55:08;;;;;;;19.60;6.25;;;5.80;99.90;;;;;;5009082;28;20032;-70
2022/03/01 08:57:34;;;;;;;22.45;7.35;;;5.90;99.90;;;;;;5023725;28;20038;-71
2022/03/01 09:00:03;;;;;;;14.35;5.90;;;6.00;99.90;;;;;;5020893;28;20034;-70
2022/03/01 09:02:31;;;;;;;14.18;5.30;;;6.10;99.90;;;;;;5018050;28;20026;-72
2022/03/01 09:04:57;;;;;;;23.20;5.80;;;6.20;99.90;;;;;;5007564;28;20057;-71
2022/03/01 09:07:27;;;;;;;14.20;5.28;;;6.30;99.90;;;;;;5017788;28;20050;-70
2022/03/01 09:09:54;;;;;;;23.70;6.53;;;6.40;99.90;;;;;;5015695;28;20033;-75
2022/03/01 09:12:22;;;;;;;15.20;5.47;;;6.50;99.90;;;;;;5027346;28;20030;-70
2022/03/01 09:14:47;;;;;;;16.30;6.60;;;6.50;99.90;;;;;;5017299;28;20030;-71
2022/03/01 09:17:13;;;;;;;14.13;5.50;;;6.60;99.90;;;;;;5005559;28;20040;-72
2022/03/01 09:19:45;;;;;;;11.18;5.13;;;6.60;99.90;;;;;;5004325;28;20514;-70
2022/03/01 09:22:11;;;;;;;18.55;6.15;;;6.70;99.90;;;;;;5017434;28;20114;-72
2022/03/01 09:24:42;;;;;;;13.32;5.60;;;6.80;99.90;;;;;;5021942;28;20474;-72
2022/03/01 09:27:09;;;;;;;28.25;7.15;;;6.90;99.90;;;;;;5019689;28;20022;-70
2022/03/01 09:29:34;;;;;;;14.43;6.45;;;7.00;99.90;;;;;;5026394;28;20481;-72
2022/03/01 09:32:01;;;;;;;20.13;6.28;;;7.10;99.90;;;;;;5007101;28;20097;-74
2022/03/01 09:34:28;;;;;;;14.25;5.65;;;7.30;99.90;;;;;;5026992;28;20524;-71
2022/03/01 09:36:54;;;;;;;15.32;6.57;;;7.50;99.90;;;;;;5026586;28;20022;-73
2022/03/01 09:39:21;;;;;;;16.98;6.80;;;7.70;99.90;;;;;;5026810;28;20505;-71
2022/03/01 09:41:47;;;;;;;16.60;6.25;;;7.80;99.90;;;;;;5026446;28;20057;-71
2022/03/01 09:44:14;;;;;;;19.95;6.28;;;7.90;99.90;;;;;;5026310;28;20402;-71
2022/03/01 09:46:41;;;;;;;14.88;6.03;;;8.20;99.90;;;;;;5026212;28;20029;-72
2022/03/01 09:49:08;;;;;;;20.30;7.15;;;8.40;99.90;;;;;;5025120;28;20038;-73
2022/03/01 09:51:37;;;;;;;19.00;6.68;;;8.60;99.90;;;;;;5024883;28;20032;-73
2022/03/01 09:54:05;;;;;;;18.25;6.75;;;8.70;99.90;;;;;;5006837;28;20041;-71
2022/03/01 09:56:32;;;;;;;13.60;6.28;;;8.60;99.90;;;;;;5011935;28;20034;-73
2022/03/01 09:59:00;;;;;;;19.77;6.25;;;8.50;99.90;;;;;;5020606;28;20139;-70
2022/03/01 10:01:27;;;;;;;20.25;6.05;;;8.50;99.90;;;;;;5023463;28;20389;-73
2022/03/01 10:04:05;;;;;;;21.33;7.65;;;8.60;99.90;;;;;;5023780;28;20030;-69
2022/03/01 10:06:40;;;;;;;17.05;6.13;;;8.70;99.90;;;;;;5019367;28;20129;-72
2022/03/01 10:09:16;;;;;;;;;;;8.70;99.90;;;;;;5005799;28;20115;-73
2022/03/01 10:11:42;;;;;;;11.85;5.90;;;8.80;99.90;;;;;;5017860;28;19924;-73
2022/03/01 10:14:09;;;;;;;16.20;6.97;;;8.80;99.90;;;;;;5021590;28;20026;-71
2022/03/01 10:16:43;;;;;;;14.23;6.53;;;8.80;99.90;;;;;;5016193;28;20034;-71
2022/03/01 10:19:17;;;;;;;20.75;6.28;;;8.80;99.90;;;;;;4995539;28;20066;-70
2022/03/01 10:21:47;;;;;;;14.07;6.70;;;8.80;99.90;;;;;;5025170;28;21141;-70
2022/03/01 10:24:15;;;;;;;20.90;7.40;;;8.80;99.90;;;;;;5024146;28;20149;-73
2022/03/01 10:26:43;;;;;;;15.25;6.93;;;8.90;99.90;;;;;;5007154;28;20038;-73
2022/03/01 10:29:09;;;;;;;14.55;6.45;;;9.00;99.90;;;;;;5019892;28;20115;-72
2022/03/01 10:31:35;;;;;;;12.70;5.75;;;9.20;99.90;;;;;;5019059;28;20064;-72
2022/03/01 10:34:06;;;;;;;19.50;8.30;;;9.60;99.90;;;;;;5021333;28;20041;-70
2022/03/01 10:37:02;;;;;;;13.55;6.55;;;10.00;99.90;;;;;;5025204;28;20114;-73
2022/03/01 10:39:33;;;;;;;14.45;6.25;;;10.50;99.90;;;;;;5001599;28;20042;-72
2022/03/01 10:41:58;;;;;;;12.65;6.00;;;10.60;99.90;;;;;;5014791;28;20048;-72
2022/03/01 10:44:29;;;;;;;14.77;6.40;;;10.40;99.90;;;;;;5022004;28;20062;-71
2022/03/01 10:47:02;;;;;;;16.95;6.88;;;10.20;99.90;;;;;;5023652;28;20026;-72
2022/03/01 10:49:33;;;;;;;17.52;6.20;;;10.10;99.90;;;;;;4987726;28;20126;-73
2022/03/01 10:52:04;;;;;;;22.70;7.43;;;9.90;99.90;;;;;;5015446;28;20072;-73
2022/03/01 10:54:39;;;;;;;13.02;6.03;;;9.90;99.90;;;;;;5024473;28;20081;-73
2022/03/01 10:57:24;;;;;;;13.18;6.45;;;9.90;99.90;;;;;;5024274;28;20030;-72
2022/03/01 10:59:51;;;;;;;19.55;6.20;;;10.10;99.90;;;;;;5019575;28;20053;-71
2022/03/01 11:02:17;;;;;;;15.73;6.40;;;10.20;99.90;;;;;;4994624;28;20030;-71
2022/03/01 11:04:46;;;;;;;15.75;5.80;;;10.30;99.90;;;;;;5002100;28;20036;-73
2022/03/01 11:07:13;;;;;;;13.55;5.90;;;10.60;99.90;;;;;;4999430;28;20061;-74
2022/03/01 11:09:39;;;;;;;28.17;9.20;;;10.90;99.90;;;;;;5020797;28;20030;-74
2022/03/01 11:12:07;;;;;;;15.38;5.97;;;11.10;99.90;;;;;;5023876;28;20095;-73
2022/03/01 11:14:59;;;;;;;20.73;7.85;;;11.20;99.90;;;;;;5024740;28;20521;-70
2022/03/01 11:17:38;;;;;;;16.95;7.28;;;11.10;99.90;;;;;;5015722;28;20068;-71
2022/03/01 11:20:09;;;;;;;20.65;6.13;;;10.90;99.90;;;;;;5024740;28;20252;-71
2022/03/01 11:22:50;;;;;;;14.20;6.57;;;10.70;99.90;;;;;;5024520;28;20026;-71
2022/03/01 11:25:22;;;;;;;22.42;7.80;;;10.60;99.90;;;;;;5021531;28;20068;-71
2022/03/01 11:27:50;;;;;;;17.00;6.47;;;10.60;99.90;;;;;;5023499;28;20037;-71
2022/03/01 11:30:17;;;;;;;14.57;6.13;;;10.60;99.90;;;;;;5022799;28;20040;-72
2022/03/01 11:32:45;;;;;;;18.98;6.88;;;10.60;99.90;;;;;;5022387;28;20053;-71
2022/03/01 11:35:20;;;;;;;21.58;7.03;;;10.60;99.90;;;;;;5023731;28;20033;-72
2022/03/01 11:37:46;;;;;;;;;;;10.60;99.90;;;;;;5023647;28;20038;-71
2022/03/01 11:40:23;;;;;;;14.88;6.25;;;10.60;99.90;;;;;;5022548;28;19913;-72
2022/03/01 11:42:49;;;;;;;19.25;7.05;;;10.60;99.90;;;;;;5023638;28;20026;-71
2022/03/01 11:45:16;;;;;;;10.63;5.10;;;10.80;99.90;;;;;;5023760;28;20082;-72
2022/03/01 11:47:42;;;;;;;15.18;6.00;;;11.10;99.90;;;;;;5023765;28;20107;-72
2022/03/01 11:50:16;;;;;;;14.40;6.03;;;11.30;99.90;;;;;;5023593;28;20034;-71
2022/03/01 11:53:02;;;;;;;19.58;7.05;;;11.30;99.90;;;;;;5023609;28;20030;-73
2022/03/01 11:55:35;;;;;;;17.30;6.97;;;11.10;99.90;;;;;;5022589;28;20033;-72
2022/03/01 11:58:02;;;;;;;13.63;5.80;;;10.90;99.90;;;;;;5022094;28;20394;-71
2022/03/01 12:00:29;;;;;;;21.15;7.22;;;10.80;99.90;;;;;;5024116;28;20044;-72
2022/03/01 12:02:58;;;;;;;22.27;5.93;;;10.70;99.90;;;;;;5023634;28;20142;-72
2022/03/01 12:05:26;;;;;;;23.92;7.28;;;10.70;99.90;;;;;;5023153;28;20556;-74
2022/03/01 12:07:54;;;;;;;13.65;5.82;;;10.80;99.90;;;;;;5023278;28;20061;-72
2022/03/01 12:10:22;;;;;;;14.82;6.38;;;10.80;99.90;;;;;;5017852;28;20029;-71
2022/03/01 12:12:48;;;;;;;10.25;5.10;;;10.70;99.90;;;;;;5004268;28;20057;-72
2022/03/01 12:15:25;;;;;;;19.10;6.32;;;10.60;99.90;;;;;;5023710;28;20140;-72
2022/03/01 12:17:51;;;;;;;15.65;5.65;;;10.60;99.90;;;;;;5024026;28;20065;-72
2022/03/01 12:20:19;;;;;;;11.75;5.30;;;10.60;99.90;;;;;;5023976;28;20041;-72
2022/03/01 12:22:58;;;;;;;19.15;6.75;;;10.60;99.90;;;;;;5023922;28;20034;-72
2022/03/01 12:25:27;;;;;;;18.70;7.05;;;10.50;99.90;;;;;;5027984;28;20030;-72
2022/03/01 12:27:55;;;;;;;17.73;7.03;;;10.50;99.90;;;;;;5027768;28;20096;-71
2022/03/01 12:30:22;;;;;;;17.85;6.18;;;10.30;99.90;;;;;;5027845;28;20057;-71
2022/03/01 12:32:56;;;;;;;12.57;6.35;;;10.30;99.90;;;;;;5025543;28;20072;-70
2022/03/01 12:35:27;;;;;;;19.38;7.15;;;10.10;99.90;;;;;;5025270;28;20034;-72
2022/03/01 12:38:05;;;;;;;14.55;6.80;;;10.10;99.90;;;;;;5026947;28;20129;-72
2022/03/01 12:40:32;;;;;;;21.60;7.45;;;10.20;99.90;;;;;;5007051;28;20037;-72
2022/03/01 12:43:03;;;;;;;20.25;7.88;;;10.30;99.90;;;;;;5027507;28;20030;-71
2022/03/01 12:45:46;;;;;;;20.83;6.93;;;10.60;99.90;;;;;;5009708;28;20030;-71